sensor_id;sensor_type;location;lat;lon;timestamp;pressure;altitude;pressure_sealevel;temperature;humidity
51715;BME280;39115;59.332;18.034;2023-11-19T00:00:23;101747.25;;;-0.66;60.68
51715;BME280;39115;59.332;18.034;2023-11-19T00:02:43;101740.31;;;-0.67;60.59
51715;BME280;39115;59.332;18.034;2023-11-19T00:05:04;101739.47;;;-0.68;60.57
51715;BME280;39115;59.332;18.034;2023-11-19T00:07:25;101735.94;;;-0.67;60.47
51715;BME280;39115;59.332;18.034;2023-11-19T00:09:46;101734.22;;;-0.68;60.75
51715;BME280;39115;59.332;18.034;2023-11-19T00:12:07;101730.78;;;-0.70;60.41
51715;BME280;39115;59.332;18.034;2023-11-19T00:14:27;101729.88;;;-0.69;60.59
51715;BME280;39115;59.332;18.034;2023-11-19T00:16:50;101726.41;;;-0.69;60.58
51715;BME280;39115;59.332;18.034;2023-11-19T00:19:11;101722.09;;;-0.70;60.65
51715;BME280;39115;59.332;18.034;2023-11-19T00:21:32;101720.31;;;-0.70;60.71
51715;BME280;39115;59.332;18.034;2023-11-19T00:23:53;101712.53;;;-0.71;60.62
51715;BME280;39115;59.332;18.034;2023-11-19T00:26:14;101703.81;;;-0.72;60.46
51715;BME280;39115;59.332;18.034;2023-11-19T00:28:34;101698.63;;;-0.73;60.48
51715;BME280;39115;59.332;18.034;2023-11-19T00:30:57;101705.59;;;-0.74;60.63
51715;BME280;39115;59.332;18.034;2023-11-19T00:33:18;101699.47;;;-0.73;60.76
51715;BME280;39115;59.332;18.034;2023-11-19T00:35:38;101700.34;;;-0.74;60.78
51715;BME280;39115;59.332;18.034;2023-11-19T00:37:59;101700.34;;;-0.74;60.73
51715;BME280;39115;59.332;18.034;2023-11-19T00:40:20;101695.13;;;-0.74;60.48
51715;BME280;39115;59.332;18.034;2023-11-19T00:42:43;101694.28;;;-0.74;60.68
51715;BME280;39115;59.332;18.034;2023-11-19T00:45:04;101689.06;;;-0.74;60.66
51715;BME280;39115;59.332;18.034;2023-11-19T00:47:29;101682.09;;;-0.75;60.62
51715;BME280;39115;59.332;18.034;2023-11-19T00:49:51;101681.28;;;-0.77;60.72
51715;BME280;39115;59.332;18.034;2023-11-19T00:52:11;101678.63;;;-0.76;60.88
51715;BME280;39115;59.332;18.034;2023-11-19T00:54:32;101676.97;;;-0.78;60.68
51715;BME280;39115;59.332;18.034;2023-11-19T00:56:52;101672.59;;;-0.78;60.45
51715;BME280;39115;59.332;18.034;2023-11-19T00:59:13;101676.03;;;-0.77;60.57
51715;BME280;39115;59.332;18.034;2023-11-19T01:01:34;101678.72;;;-0.79;60.44
51715;BME280;39115;59.332;18.034;2023-11-19T01:03:54;101685.66;;;-0.78;60.53
51715;BME280;39115;59.332;18.034;2023-11-19T01:06:26;101683.94;;;-0.79;60.82
51715;BME280;39115;59.332;18.034;2023-11-19T01:08:47;101686.56;;;-0.79;60.67
51715;BME280;39115;59.332;18.034;2023-11-19T01:11:07;101682.22;;;-0.80;60.56
51715;BME280;39115;59.332;18.034;2023-11-19T01:13:28;101675.25;;;-0.81;60.51
51715;BME280;39115;59.332;18.034;2023-11-19T01:15:49;101673.53;;;-0.81;60.53
51715;BME280;39115;59.332;18.034;2023-11-19T01:18:10;101675.31;;;-0.83;60.75
51715;BME280;39115;59.332;18.034;2023-11-19T01:20:31;101673.56;;;-0.82;60.47
51715;BME280;39115;59.332;18.034;2023-11-19T01:22:51;101663.97;;;-0.82;60.56
51715;BME280;39115;59.332;18.034;2023-11-19T01:25:12;101670.09;;;-0.83;60.47
51715;BME280;39115;59.332;18.034;2023-11-19T01:27:33;101662.25;;;-0.83;60.48
51715;BME280;39115;59.332;18.034;2023-11-19T01:29:56;101663.13;;;-0.84;60.62
51715;BME280;39115;59.332;18.034;2023-11-19T01:32:17;101663.13;;;-0.84;60.67
51715;BME280;39115;59.332;18.034;2023-11-19T01:34:37;101665.78;;;-0.85;60.68
51715;BME280;39115;59.332;18.034;2023-11-19T01:36:58;101661.41;;;-0.85;60.50
51715;BME280;39115;59.332;18.034;2023-11-19T01:39:18;101660.56;;;-0.85;60.50
51715;BME280;39115;59.332;18.034;2023-11-19T01:41:40;101654.50;;;-0.86;60.49
51715;BME280;39115;59.332;18.034;2023-11-19T01:44:00;101653.63;;;-0.86;60.46
51715;BME280;39115;59.332;18.034;2023-11-19T01:46:20;101646.66;;;-0.87;60.61
51715;BME280;39115;59.332;18.034;2023-11-19T01:48:44;101645.81;;;-0.88;60.54
51715;BME280;39115;59.332;18.034;2023-11-19T01:51:06;101637.97;;;-0.88;60.67
51715;BME280;39115;59.332;18.034;2023-11-19T01:53:28;101645.81;;;-0.88;60.68
51715;BME280;39115;59.332;18.034;2023-11-19T01:55:50;101635.38;;;-0.88;60.57
51715;BME280;39115;59.332;18.034;2023-11-19T01:58:10;101634.50;;;-0.88;60.39
51715;BME280;39115;59.332;18.034;2023-11-19T02:00:32;101632.78;;;-0.89;60.44
51715;BME280;39115;59.332;18.034;2023-11-19T02:02:53;101624.06;;;-0.90;60.47
51715;BME280;39115;59.332;18.034;2023-11-19T02:05:15;101623.25;;;-0.90;60.60
51715;BME280;39115;59.332;18.034;2023-11-19T02:07:36;101615.41;;;-0.90;60.87
51715;BME280;39115;59.332;18.034;2023-11-19T02:09:57;101611.91;;;-0.91;60.64
51715;BME280;39115;59.332;18.034;2023-11-19T02:12:20;101613.69;;;-0.91;60.65
51715;BME280;39115;59.332;18.034;2023-11-19T02:14:41;101613.69;;;-0.91;60.69
51715;BME280;39115;59.332;18.034;2023-11-19T02:17:01;101612.78;;;-0.92;60.52
51715;BME280;39115;59.332;18.034;2023-11-19T02:19:22;101611.94;;;-0.92;60.61
51715;BME280;39115;59.332;18.034;2023-11-19T02:21:42;101607.56;;;-0.92;60.75
51715;BME280;39115;59.332;18.034;2023-11-19T02:24:06;101604.16;;;-0.94;60.65
51715;BME280;39115;59.332;18.034;2023-11-19T02:27:29;101602.38;;;-0.93;60.60
51715;BME280;39115;59.332;18.034;2023-11-19T02:29:41;101593.72;;;-0.96;60.47
51715;BME280;39115;59.332;18.034;2023-11-19T02:32:03;101598.94;;;-0.96;60.44
51715;BME280;39115;59.332;18.034;2023-11-19T02:34:23;101596.38;;;-0.97;60.55
51715;BME280;39115;59.332;18.034;2023-11-19T02:36:44;101586.78;;;-0.97;60.54
51715;BME280;39115;59.332;18.034;2023-11-19T02:39:04;101581.53;;;-0.97;60.55
51715;BME280;39115;59.332;18.034;2023-11-19T02:41:30;101579.84;;;-0.98;60.29
51715;BME280;39115;59.332;18.034;2023-11-19T02:43:51;101578.97;;;-0.98;60.50
51715;BME280;39115;59.332;18.034;2023-11-19T02:46:12;101570.28;;;-0.99;60.70
51715;BME280;39115;59.332;18.034;2023-11-19T02:48:35;101570.28;;;-0.99;60.50
51715;BME280;39115;59.332;18.034;2023-11-19T02:50:56;101563.34;;;-1.00;60.65
51715;BME280;39115;59.332;18.034;2023-11-19T02:53:18;101565.97;;;-1.00;60.57
51715;BME280;39115;59.332;18.034;2023-11-19T02:55:42;101556.34;;;-0.99;60.50
51715;BME280;39115;59.332;18.034;2023-11-19T02:58:08;101547.72;;;-1.01;60.47
51715;BME280;39115;59.332;18.034;2023-11-19T03:00:40;101544.22;;;-1.02;60.63
51715;BME280;39115;59.332;18.034;2023-11-19T03:03:08;101541.63;;;-1.02;60.66
51715;BME280;39115;59.332;18.034;2023-11-19T03:05:40;101539.88;;;-1.03;60.39
51715;BME280;39115;59.332;18.034;2023-11-19T03:08:01;101538.16;;;-1.02;60.79
51715;BME280;39115;59.332;18.034;2023-11-19T03:10:21;101531.22;;;-1.03;60.66
51715;BME280;39115;59.332;18.034;2023-11-19T03:12:43;101530.34;;;-1.04;60.46
51715;BME280;39115;59.332;18.034;2023-11-19T03:15:06;101530.34;;;-1.04;60.55
51715;BME280;39115;59.332;18.034;2023-11-19T03:17:27;101526.00;;;-1.05;60.65
51715;BME280;39115;59.332;18.034;2023-11-19T03:19:47;101524.31;;;-1.06;60.66
51715;BME280;39115;59.332;18.034;2023-11-19T03:22:08;101519.09;;;-1.06;60.50
51715;BME280;39115;59.332;18.034;2023-11-19T03:24:31;101517.31;;;-1.05;60.64
51715;BME280;39115;59.332;18.034;2023-11-19T03:26:52;101507.75;;;-1.06;60.57
51715;BME280;39115;59.332;18.034;2023-11-19T03:29:13;101506.91;;;-1.07;60.60
51715;BME280;39115;59.332;18.034;2023-11-19T03:31:33;101510.38;;;-1.06;60.59
51715;BME280;39115;59.332;18.034;2023-11-19T03:33:54;101503.41;;;-1.07;60.53
51715;BME280;39115;59.332;18.034;2023-11-19T03:36:14;101499.97;;;-1.08;60.50
51715;BME280;39115;59.332;18.034;2023-11-19T03:38:35;101486.03;;;-1.08;60.48
51715;BME280;39115;59.332;18.034;2023-11-19T03:40:55;101495.63;;;-1.09;60.65
51715;BME280;39115;59.332;18.034;2023-11-19T03:43:16;101484.34;;;-1.09;60.44
51715;BME280;39115;59.332;18.034;2023-11-19T03:45:36;101480.00;;;-1.10;60.52
51715;BME280;39115;59.332;18.034;2023-11-19T03:47:56;101481.75;;;-1.11;60.61
51715;BME280;39115;59.332;18.034;2023-11-19T03:50:17;101474.78;;;-1.12;60.63
51715;BME280;39115;59.332;18.034;2023-11-19T03:52:40;101476.50;;;-1.11;60.55
51715;BME280;39115;59.332;18.034;2023-11-19T03:55:02;101472.19;;;-1.12;60.58
51715;BME280;39115;59.332;18.034;2023-11-19T03:57:25;101469.56;;;-1.12;60.47
51715;BME280;39115;59.332;18.034;2023-11-19T03:59:46;101468.78;;;-1.14;60.38
51715;BME280;39115;59.332;18.034;2023-11-19T04:02:06;101470.50;;;-1.15;60.76
51715;BME280;39115;59.332;18.034;2023-11-19T04:04:27;101463.56;;;-1.14;60.57
51715;BME280;39115;59.332;18.034;2023-11-19T04:06:48;101457.44;;;-1.15;60.52
51715;BME280;39115;59.332;18.034;2023-11-19T04:09:09;101458.34;;;-1.16;60.64
51715;BME280;39115;59.332;18.034;2023-11-19T04:11:29;101462.69;;;-1.15;60.63
51715;BME280;39115;59.332;18.034;2023-11-19T04:13:50;101462.72;;;-1.16;60.60
51715;BME280;39115;59.332;18.034;2023-11-19T04:16:10;101451.44;;;-1.17;60.25
51715;BME280;39115;59.332;18.034;2023-11-19T04:18:31;101442.72;;;-1.17;60.67
51715;BME280;39115;59.332;18.034;2023-11-19T04:20:52;101441.88;;;-1.18;60.32
51715;BME280;39115;59.332;18.034;2023-11-19T04:23:12;101438.38;;;-1.18;60.35
51715;BME280;39115;59.332;18.034;2023-11-19T04:25:33;101431.44;;;-1.19;60.44
51715;BME280;39115;59.332;18.034;2023-11-19T04:27:55;101436.66;;;-1.19;60.52
51715;BME280;39115;59.332;18.034;2023-11-19T04:30:15;101430.59;;;-1.20;60.59
51715;BME280;39115;59.332;18.034;2023-11-19T04:32:37;101421.94;;;-1.22;60.54
51715;BME280;39115;59.332;18.034;2023-11-19T04:34:57;101418.44;;;-1.21;60.54
51715;BME280;39115;59.332;18.034;2023-11-19T04:37:18;101414.09;;;-1.22;60.59
51715;BME280;39115;59.332;18.034;2023-11-19T04:39:39;101414.09;;;-1.22;60.49
51715;BME280;39115;59.332;18.034;2023-11-19T04:42:00;101413.25;;;-1.22;60.46
51715;BME280;39115;59.332;18.034;2023-11-19T04:44:20;101406.31;;;-1.23;60.54
51715;BME280;39115;59.332;18.034;2023-11-19T04:46:42;101405.44;;;-1.24;60.49
51715;BME280;39115;59.332;18.034;2023-11-19T04:49:05;101409.81;;;-1.24;60.49
51715;BME280;39115;59.332;18.034;2023-11-19T04:51:26;101414.22;;;-1.25;60.54
51715;BME280;39115;59.332;18.034;2023-11-19T04:53:46;101404.66;;;-1.28;60.47
51715;BME280;39115;59.332;18.034;2023-11-19T04:56:08;101401.16;;;-1.27;60.61
51715;BME280;39115;59.332;18.034;2023-11-19T04:58:29;101401.16;;;-1.27;60.45
51715;BME280;39115;59.332;18.034;2023-11-19T05:00:50;101401.22;;;-1.28;60.52
51715;BME280;39115;59.332;18.034;2023-11-19T05:03:11;101399.44;;;-1.28;60.50
51715;BME280;39115;59.332;18.034;2023-11-19T05:05:31;101396.88;;;-1.29;60.60
51715;BME280;39115;59.332;18.034;2023-11-19T05:07:52;101392.56;;;-1.30;60.41
51715;BME280;39115;59.332;18.034;2023-11-19T05:10:12;101389.94;;;-1.30;60.57
51715;BME280;39115;59.332;18.034;2023-11-19T05:12:33;101393.44;;;-1.31;60.35
51715;BME280;39115;59.332;18.034;2023-11-19T05:14:54;101389.09;;;-1.31;60.54
51715;BME280;39115;59.332;18.034;2023-11-19T05:17:15;101388.28;;;-1.33;60.56
51715;BME280;39115;59.332;18.034;2023-11-19T05:19:38;101390.03;;;-1.33;60.54
51715;BME280;39115;59.332;18.034;2023-11-19T05:21:58;101383.94;;;-1.34;60.53
51715;BME280;39115;59.332;18.034;2023-11-19T05:24:19;101379.63;;;-1.35;60.53
51715;BME280;39115;59.332;18.034;2023-11-19T05:26:39;101374.44;;;-1.36;60.61
51715;BME280;39115;59.332;18.034;2023-11-19T05:29:01;101377.91;;;-1.36;60.49
51715;BME280;39115;59.332;18.034;2023-11-19T05:31:21;101375.28;;;-1.36;60.40
51715;BME280;39115;59.332;18.034;2023-11-19T05:33:42;101366.59;;;-1.36;60.44
51715;BME280;39115;59.332;18.034;2023-11-19T05:36:04;101367.56;;;-1.39;60.57
51715;BME280;39115;59.332;18.034;2023-11-19T05:38:25;101360.56;;;-1.38;60.54
51715;BME280;39115;59.332;18.034;2023-11-19T05:40:45;101364.94;;;-1.39;60.44
51715;BME280;39115;59.332;18.034;2023-11-19T05:43:08;101363.22;;;-1.40;60.46
51715;BME280;39115;59.332;18.034;2023-11-19T05:45:29;101361.50;;;-1.41;60.36
51715;BME280;39115;59.332;18.034;2023-11-19T05:47:50;101358.06;;;-1.43;60.66
51715;BME280;39115;59.332;18.034;2023-11-19T05:50:12;101347.63;;;-1.43;60.54
51715;BME280;39115;59.332;18.034;2023-11-19T05:52:32;101344.19;;;-1.44;60.46
51715;BME280;39115;59.332;18.034;2023-11-19T05:54:53;101347.69;;;-1.45;60.49
51715;BME280;39115;59.332;18.034;2023-11-19T05:57:14;101345.06;;;-1.45;60.46
51715;BME280;39115;59.332;18.034;2023-11-19T05:59:38;101346.84;;;-1.45;60.48
51715;BME280;39115;59.332;18.034;2023-11-19T06:01:59;101343.41;;;-1.47;60.54
51715;BME280;39115;59.332;18.034;2023-11-19T06:04:20;101343.41;;;-1.47;60.53
51715;BME280;39115;59.332;18.034;2023-11-19T06:06:41;101335.63;;;-1.49;60.50
51715;BME280;39115;59.332;18.034;2023-11-19T06:09:02;101339.13;;;-1.50;60.53
51715;BME280;39115;59.332;18.034;2023-11-19T06:11:23;101343.53;;;-1.52;60.54
51715;BME280;39115;59.332;18.034;2023-11-19T06:13:47;101343.47;;;-1.50;60.50
51715;BME280;39115;59.332;18.034;2023-11-19T06:16:11;101353.09;;;-1.51;60.72
51715;BME280;39115;59.332;18.034;2023-11-19T06:18:32;101343.53;;;-1.52;60.49
51715;BME280;39115;59.332;18.034;2023-11-19T06:20:53;101342.69;;;-1.52;60.76
51715;BME280;39115;59.332;18.034;2023-11-19T06:23:13;101346.19;;;-1.53;60.63
51715;BME280;39115;59.332;18.034;2023-11-19T06:25:34;101343.59;;;-1.55;60.51
51715;BME280;39115;59.332;18.034;2023-11-19T06:27:55;101343.59;;;-1.55;60.43
51715;BME280;39115;59.332;18.034;2023-11-19T06:30:18;101340.16;;;-1.55;60.53
51715;BME280;39115;59.332;18.034;2023-11-19T06:32:38;101342.75;;;-1.55;60.49
51715;BME280;39115;59.332;18.034;2023-11-19T06:34:59;101335.88;;;-1.58;60.52
51715;BME280;39115;59.332;18.034;2023-11-19T06:37:20;101340.19;;;-1.57;60.48
51715;BME280;39115;59.332;18.034;2023-11-19T06:39:40;101335.81;;;-1.56;60.41
51715;BME280;39115;59.332;18.034;2023-11-19T06:42:01;101328.03;;;-1.58;60.47
51715;BME280;39115;59.332;18.034;2023-11-19T06:44:21;101327.16;;;-1.59;60.46
51715;BME280;39115;59.332;18.034;2023-11-19T06:46:41;101322.88;;;-1.60;60.40
51715;BME280;39115;59.332;18.034;2023-11-19T06:49:02;101316.78;;;-1.60;60.61
51715;BME280;39115;59.332;18.034;2023-11-19T06:51:23;101315.03;;;-1.60;60.46
51715;BME280;39115;59.332;18.034;2023-11-19T06:53:44;101316.78;;;-1.60;60.55
51715;BME280;39115;59.332;18.034;2023-11-19T06:56:21;101304.66;;;-1.63;60.59
51715;BME280;39115;59.332;18.034;2023-11-19T06:58:42;101309.00;;;-1.62;60.47
51715;BME280;39115;59.332;18.034;2023-11-19T07:01:06;101302.91;;;-1.62;60.45
51715;BME280;39115;59.332;18.034;2023-11-19T07:03:27;101297.66;;;-1.62;60.43
51715;BME280;39115;59.332;18.034;2023-11-19T07:05:47;101304.66;;;-1.63;60.54
51715;BME280;39115;59.332;18.034;2023-11-19T07:08:08;101301.22;;;-1.65;60.38
51715;BME280;39115;59.332;18.034;2023-11-19T07:10:29;101302.94;;;-1.64;60.60
51715;BME280;39115;59.332;18.034;2023-11-19T07:12:50;101304.72;;;-1.66;60.34
51715;BME280;39115;59.332;18.034;2023-11-19T07:15:11;101303.00;;;-1.65;60.59
51715;BME280;39115;59.332;18.034;2023-11-19T07:17:32;101299.50;;;-1.66;60.46
51715;BME280;39115;59.332;18.034;2023-11-19T07:19:53;101306.44;;;-1.65;60.43
51715;BME280;39115;59.332;18.034;2023-11-19T07:22:15;101309.97;;;-1.66;60.48
51715;BME280;39115;59.332;18.034;2023-11-19T07:24:35;101302.13;;;-1.66;60.43
51715;BME280;39115;59.332;18.034;2023-11-19T07:26:56;101291.72;;;-1.67;60.59
51715;BME280;39115;59.332;18.034;2023-11-19T07:29:16;101286.50;;;-1.67;60.62
51715;BME280;39115;59.332;18.034;2023-11-19T07:31:37;101293.50;;;-1.68;60.42
51715;BME280;39115;59.332;18.034;2023-11-19T07:33:57;101290.88;;;-1.68;60.44
51715;BME280;39115;59.332;18.034;2023-11-19T07:36:18;101283.94;;;-1.69;60.43
51715;BME280;39115;59.332;18.034;2023-11-19T07:38:38;101288.31;;;-1.69;60.44
51715;BME280;39115;59.332;18.034;2023-11-19T07:40:59;101298.75;;;-1.69;60.23
51715;BME280;39115;59.332;18.034;2023-11-19T07:43:20;101293.56;;;-1.71;60.49
51715;BME280;39115;59.332;18.034;2023-11-19T07:45:40;101292.69;;;-1.70;60.42
51715;BME280;39115;59.332;18.034;2023-11-19T07:48:04;101290.97;;;-1.71;60.39
51715;BME280;39115;59.332;18.034;2023-11-19T07:50:26;101284.91;;;-1.71;60.56
51715;BME280;39115;59.332;18.034;2023-11-19T07:52:47;101285.75;;;-1.71;60.24
51715;BME280;39115;59.332;18.034;2023-11-19T07:55:08;101283.19;;;-1.72;60.45
51715;BME280;39115;59.332;18.034;2023-11-19T07:57:29;101286.63;;;-1.72;60.60
51715;BME280;39115;59.332;18.034;2023-11-19T07:59:51;101285.78;;;-1.72;60.46
51715;BME280;39115;59.332;18.034;2023-11-19T08:02:11;101291.91;;;-1.73;60.56
51715;BME280;39115;59.332;18.034;2023-11-19T08:04:32;101291.03;;;-1.74;60.20
51715;BME280;39115;59.332;18.034;2023-11-19T08:06:53;101284.13;;;-1.75;60.29
51715;BME280;39115;59.332;18.034;2023-11-19T08:09:14;101285.81;;;-1.74;60.45
51715;BME280;39115;59.332;18.034;2023-11-19T08:11:35;101285.81;;;-1.74;60.51
51715;BME280;39115;59.332;18.034;2023-11-19T08:13:55;101278.03;;;-1.76;60.36
51715;BME280;39115;59.332;18.034;2023-11-19T08:16:16;101284.97;;;-1.75;60.41
51715;BME280;39115;59.332;18.034;2023-11-19T08:18:37;101293.69;;;-1.76;60.54
51715;BME280;39115;59.332;18.034;2023-11-19T08:20:57;101293.69;;;-1.76;60.29
51715;BME280;39115;59.332;18.034;2023-11-19T08:23:20;101290.19;;;-1.75;60.26
51715;BME280;39115;59.332;18.034;2023-11-19T08:25:41;101280.69;;;-1.77;60.21
51715;BME280;39115;59.332;18.034;2023-11-19T08:28:01;101283.25;;;-1.76;60.19
51715;BME280;39115;59.332;18.034;2023-11-19T08:30:23;101278.94;;;-1.77;60.16
51715;BME280;39115;59.332;18.034;2023-11-19T08:32:44;101281.53;;;-1.77;60.35
51715;BME280;39115;59.332;18.034;2023-11-19T08:35:04;101279.81;;;-1.76;60.35
51715;BME280;39115;59.332;18.034;2023-11-19T08:37:25;101277.19;;;-1.76;60.41
51715;BME280;39115;59.332;18.034;2023-11-19T08:39:49;101270.25;;;-1.77;60.36
51715;BME280;39115;59.332;18.034;2023-11-19T08:42:10;101268.53;;;-1.78;60.38
51715;BME280;39115;59.332;18.034;2023-11-19T08:44:31;101271.97;;;-1.76;60.63
51715;BME280;39115;59.332;18.034;2023-11-19T08:46:52;101259.81;;;-1.77;60.42
51715;BME280;39115;59.332;18.034;2023-11-19T08:49:12;101261.53;;;-1.76;60.40
51715;BME280;39115;59.332;18.034;2023-11-19T08:51:33;101271.09;;;-1.77;60.29
51715;BME280;39115;59.332;18.034;2023-11-19T08:53:53;101264.16;;;-1.76;60.36
51715;BME280;39115;59.332;18.034;2023-11-19T08:56:14;101266.75;;;-1.76;60.15
51715;BME280;39115;59.332;18.034;2023-11-19T08:58:34;101271.09;;;-1.77;60.28
51715;BME280;39115;59.332;18.034;2023-11-19T09:00:55;101271.97;;;-1.76;60.45
51715;BME280;39115;59.332;18.034;2023-11-19T09:03:16;101264.97;;;-1.76;59.98
51715;BME280;39115;59.332;18.034;2023-11-19T09:05:36;101256.31;;;-1.76;60.32
51715;BME280;39115;59.332;18.034;2023-11-19T09:07:57;101256.31;;;-1.76;60.35
51715;BME280;39115;59.332;18.034;2023-11-19T09:10:18;101253.69;;;-1.76;60.26
51715;BME280;39115;59.332;18.034;2023-11-19T09:12:38;101252.81;;;-1.75;60.38
51715;BME280;39115;59.332;18.034;2023-11-19T09:14:59;101249.31;;;-1.76;60.19
51715;BME280;39115;59.332;18.034;2023-11-19T09:17:19;101247.59;;;-1.75;60.30
51715;BME280;39115;59.332;18.034;2023-11-19T09:19:40;101238.94;;;-1.77;60.22
51715;BME280;39115;59.332;18.034;2023-11-19T09:22:01;101241.50;;;-1.76;60.27
51715;BME280;39115;59.332;18.034;2023-11-19T09:24:21;101235.38;;;-1.75;60.39
51715;BME280;39115;59.332;18.034;2023-11-19T09:26:42;101226.69;;;-1.75;60.24
51715;BME280;39115;59.332;18.034;2023-11-19T09:29:02;101223.22;;;-1.76;60.40
51715;BME280;39115;59.332;18.034;2023-11-19T09:31:23;101207.50;;;-1.74;60.30
51715;BME280;39115;59.332;18.034;2023-11-19T09:33:44;101219.72;;;-1.75;60.35
51715;BME280;39115;59.332;18.034;2023-11-19T09:36:06;101210.13;;;-1.74;60.24
51715;BME280;39115;59.332;18.034;2023-11-19T09:38:32;101211.81;;;-1.73;60.12
51715;BME280;39115;59.332;18.034;2023-11-19T09:40:53;101217.03;;;-1.73;60.46
51715;BME280;39115;59.332;18.034;2023-11-19T09:43:15;101210.94;;;-1.72;60.34
51715;BME280;39115;59.332;18.034;2023-11-19T09:45:50;101211.81;;;-1.71;60.37
51715;BME280;39115;59.332;18.034;2023-11-19T09:48:11;101207.47;;;-1.72;60.28
51715;BME280;39115;59.332;18.034;2023-11-19T09:50:32;101205.72;;;-1.72;60.34
51715;BME280;39115;59.332;18.034;2023-11-19T09:52:53;101202.19;;;-1.71;60.24
51715;BME280;39115;59.332;18.034;2023-11-19T09:55:13;101201.34;;;-1.71;60.47
51715;BME280;39115;59.332;18.034;2023-11-19T09:57:35;101201.31;;;-1.70;60.19
51715;BME280;39115;59.332;18.034;2023-11-19T09:59:58;101190.88;;;-1.70;60.15
51715;BME280;39115;59.332;18.034;2023-11-19T10:02:18;101183.94;;;-1.71;60.32
51715;BME280;39115;59.332;18.034;2023-11-19T10:04:39;101179.53;;;-1.69;60.24
51715;BME280;39115;59.332;18.034;2023-11-19T10:07:02;101173.41;;;-1.68;60.32
51715;BME280;39115;59.332;18.034;2023-11-19T10:09:23;101161.19;;;-1.67;60.34
51715;BME280;39115;59.332;18.034;2023-11-19T10:11:43;101165.56;;;-1.68;60.25
51715;BME280;39115;59.332;18.034;2023-11-19T10:14:04;101162.03;;;-1.67;60.45
51715;BME280;39115;59.332;18.034;2023-11-19T10:16:29;101160.31;;;-1.66;60.29
51715;BME280;39115;59.332;18.034;2023-11-19T10:18:52;101150.69;;;-1.66;59.94
51715;BME280;39115;59.332;18.034;2023-11-19T10:21:13;101149.81;;;-1.65;60.52
51715;BME280;39115;59.332;18.034;2023-11-19T10:23:53;101144.59;;;-1.65;60.22
51715;BME280;39115;59.332;18.034;2023-11-19T10:26:14;101146.28;;;-1.64;60.38
51715;BME280;39115;59.332;18.034;2023-11-19T10:28:39;101147.13;;;-1.63;60.35
51715;BME280;39115;59.332;18.034;2023-11-19T10:31:01;101138.47;;;-1.64;60.46
51715;BME280;39115;59.332;18.034;2023-11-19T10:33:21;101138.41;;;-1.62;60.21
51715;BME280;39115;59.332;18.034;2023-11-19T10:35:53;101144.50;;;-1.62;60.51
51715;BME280;39115;59.332;18.034;2023-11-19T10:38:14;101135.75;;;-1.61;60.30
51715;BME280;39115;59.332;18.034;2023-11-19T10:40:38;101139.22;;;-1.60;60.35
51715;BME280;39115;59.332;18.034;2023-11-19T10:43:02;101137.47;;;-1.60;60.30
51715;BME280;39115;59.332;18.034;2023-11-19T10:45:23;101131.31;;;-1.57;60.34
51715;BME280;39115;59.332;18.034;2023-11-19T10:47:44;101126.09;;;-1.57;60.41
51715;BME280;39115;59.332;18.034;2023-11-19T10:50:06;101129.53;;;-1.56;60.12
51715;BME280;39115;59.332;18.034;2023-11-19T10:52:27;101121.66;;;-1.55;60.26
51715;BME280;39115;59.332;18.034;2023-11-19T10:54:51;101121.66;;;-1.55;60.32
51715;BME280;39115;59.332;18.034;2023-11-19T10:57:19;101125.97;;;-1.54;60.23
51715;BME280;39115;59.332;18.034;2023-11-19T10:59:40;101129.44;;;-1.53;60.29
51715;BME280;39115;59.332;18.034;2023-11-19T11:02:03;101123.34;;;-1.52;60.19
51715;BME280;39115;59.332;18.034;2023-11-19T11:04:30;101122.38;;;-1.50;60.04
51715;BME280;39115;59.332;18.034;2023-11-19T11:06:54;101118.88;;;-1.50;60.28
51715;BME280;39115;59.332;18.034;2023-11-19T11:09:18;101125.81;;;-1.49;60.40
51715;BME280;39115;59.332;18.034;2023-11-19T11:11:40;101114.47;;;-1.48;60.24
51715;BME280;39115;59.332;18.034;2023-11-19T11:14:01;101113.66;;;-1.49;59.83
51715;BME280;39115;59.332;18.034;2023-11-19T11:16:23;101108.38;;;-1.47;60.28
51715;BME280;39115;59.332;18.034;2023-11-19T11:18:46;101103.97;;;-1.47;59.96
51715;BME280;39115;59.332;18.034;2023-11-19T11:21:12;101104.84;;;-1.46;60.27
51715;BME280;39115;59.332;18.034;2023-11-19T11:31:44;101085.63;;;-1.44;60.33
51715;BME280;39115;59.332;18.034;2023-11-19T11:39:15;101084.66;;;-1.41;60.13
51715;BME280;39115;59.332;18.034;2023-11-19T11:41:36;101083.75;;;-1.40;60.19
51715;BME280;39115;59.332;18.034;2023-11-19T11:43:56;101087.22;;;-1.39;60.02
51715;BME280;39115;59.332;18.034;2023-11-19T11:48:52;101088.03;;;-1.37;60.31
51715;BME280;39115;59.332;18.034;2023-11-19T11:51:13;101081.06;;;-1.37;60.26
51715;BME280;39115;59.332;18.034;2023-11-19T11:53:34;101081.91;;;-1.36;60.21
51715;BME280;39115;59.332;18.034;2023-11-19T11:55:55;101090.56;;;-1.36;60.17
51715;BME280;39115;59.332;18.034;2023-11-19T11:58:27;101081.00;;;-1.35;60.13
51715;BME280;39115;59.332;18.034;2023-11-19T12:00:48;101080.13;;;-1.36;60.13
51715;BME280;39115;59.332;18.034;2023-11-19T12:03:11;101082.72;;;-1.34;60.30
51715;BME280;39115;59.332;18.034;2023-11-19T12:05:31;101076.63;;;-1.35;60.07
51715;BME280;39115;59.332;18.034;2023-11-19T12:08:01;101075.72;;;-1.34;60.28
51715;BME280;39115;59.332;18.034;2023-11-19T12:10:24;101084.41;;;-1.33;60.17
51715;BME280;39115;59.332;18.034;2023-11-19T12:12:45;101080.03;;;-1.33;60.27
51715;BME280;39115;59.332;18.034;2023-11-19T12:15:07;101083.53;;;-1.32;60.21
51715;BME280;39115;59.332;18.034;2023-11-19T12:19:54;101070.47;;;-1.32;60.22
51715;BME280;39115;59.332;18.034;2023-11-19T12:22:14;101081.75;;;-1.32;60.05
51715;BME280;39115;59.332;18.034;2023-11-19T12:24:35;101078.25;;;-1.31;60.22
51715;BME280;39115;59.332;18.034;2023-11-19T12:26:56;101062.56;;;-1.31;60.25
51715;BME280;39115;59.332;18.034;2023-11-19T12:29:17;101060.78;;;-1.30;60.18